Latest Weather Observations for Armidale Airport

IDN60801

Issued at 6:03 am EDT Monday 15 February 2016 (issued every 30 minutes, with the page automatically refreshed every 10 minutes)

About weather observations | Map of weather stations | Latest weather observations for NSW | Other Formats
Station Details ID: 056238 Name: ARMIDALE AIRPORT AWS Lat: -30.53 Lon: 151.62 Height: 1079.0 m
Data from the previous 72 hours. | See also: Recent months at Armidale Airport
Date/Time
EDT
Temp
°C
App
Temp
°C
Dew
Point
Rel
Hum
%
Delta-T
°C
Wind Press
QNH
hPa
Press
MSL
hPa
Rain
since 9 am
mm
Dir
 
Spd
km/h
Gust
km/h
Spd
kts
Gust
kts
15/06:00am 14.2 11.5 8.8 70 2.9 ENE 13 15 7 8 1015.1 1009.3 0.2
15/05:30am 14.0 11.4 9.4 74 2.5 ENE 13 15 7 8 1015.0 1009.2 0.2
15/05:00am 14.3 12.1 10.9 80 1.9 ENE 13 13 7 7 1014.9 1009.1 0.2
15/04:30am 14.3 12.6 11.1 81 1.8 NE 11 11 6 6 1014.8 1009.0 0.2
15/04:00am 16.0 14.7 11.4 74 2.6 NE 9 9 5 5 1014.9 1009.1 0.2
15/03:30am 15.4 14.1 11.4 77 2.3 ENE 9 11 5 6 1015.1 1009.3 0.2
15/03:00am 15.9 14.9 11.1 73 2.7 ENE 7 9 4 5 1015.1 1009.3 0.2
15/02:30am 17.8 16.8 11.1 65 3.8 NE 7 7 4 4 1015.4 1009.6 0.2
15/02:00am 18.5 17.9 11.8 65 3.9 NE 6 7 3 4 1015.5 1009.7 0.2
15/01:30am 16.2 14.9 11.4 73 2.7 NE 9 11 5 6 1015.6 1009.8 0.2
15/01:00am 17.0 16.1 11.3 69 3.3 ENE 7 9 4 5 1015.9 1010.1 0.2
15/12:30am 16.4 15.1 11.3 72 2.9 ENE 9 11 5 6 1016.0 1010.2 0.2
15/12:00am 17.1 15.8 11.4 69 3.3 ENE 9 11 5 6 1016.3 1010.5 0.2
 
Date/Time
EDT
Temp
°C
App
Temp
°C
Dew
Point
Rel
Hum
%
Delta-T
°C
Wind Press
QNH
hPa
Press
MSL
hPa
Rain
since 9 am
mm
Dir
 
Spd
km/h
Gust
km/h
Spd
kts
Gust
kts
14/11:30pm 17.3 15.9 10.9 66 3.6 ENE 9 9 5 5 1016.4 1010.6 0.2
14/11:00pm 17.7 16.3 11.0 65 3.8 NE 9 11 5 6 1016.6 1010.8 0.2
14/10:30pm 18.9 17.8 10.7 59 4.7 ENE 7 9 4 5 1016.6 1010.8 0.2
14/10:00pm 19.5 18.3 10.2 55 5.3 ENE 7 9 4 5 1016.5 1010.7 0.2
14/09:30pm 19.5 17.9 10.2 55 5.3 ENE 9 11 5 6 1016.4 1010.6 0.2
14/09:00pm 20.5 18.8 9.7 50 6.1 E 9 11 5 6 1016.1 1010.4 0.2
14/08:30pm 21.9 19.8 9.8 46 6.9 E 11 15 6 8 1015.7 1009.9 0.2
14/08:00pm 23.8 21.1 9.0 39 8.4 ESE 13 17 7 9 1015.3 1009.5 0.2
14/07:30pm 25.1 22.2 8.1 34 9.5 ESE 13 17 7 9 1014.7 1008.9 0.2
14/07:00pm 26.4 23.4 7.9 31 10.4 ESE 13 19 7 10 1014.3 1008.4 0.2
14/06:30pm 26.8 23.2 8.3 31 10.5 ESE 17 20 9 11 1014.0 1008.2 0.2
14/06:00pm 28.5 24.2 7.7 27 11.8 ESE 20 30 11 16 1013.7 1007.9 0.2
14/05:30pm 28.9 22.2 5.7 23 12.8 SE 30 43 16 23 1013.6 1007.8 0.2
14/05:00pm 29.8 25.9 8.8 27 12.2 SE 19 32 10 17 1013.5 1007.6 0.2
14/04:30pm 29.5 23.8 8.5 27 12.1 S 28 50 15 27 1013.4 1007.5 0.2
14/04:27pm 30.2 24.9 8.6 26 12.5 S 26 50 14 27 1013.0 1007.2 0.2
14/04:00pm 30.0 24.8 7.2 24 12.9 SSE 24 32 13 17 1013.1 1007.3 0.2
14/03:30pm 29.7 24.3 8.2 26 12.4 SE 26 39 14 21 1013.3 1007.4 0.2
14/03:18pm 29.7 23.3 7.0 24 12.8 SSE 30 48 16 26 1013.3 1007.4 0.2
14/03:00pm 29.5 24.5 8.0 26 12.3 SSE 24 52 13 28 1013.5 1007.6 0.2
14/02:57pm 29.6 25.1 8.6 27 12.1 SSE 22 52 12 28 1013.4 1007.5 0.2
14/02:30pm 28.9 25.5 10.6 32 10.9 SE 19 33 10 18 1013.7 1007.9 0.2
14/02:00pm 28.9 26.0 12.3 36 10.1 SE 19 26 10 14 1013.9 1008.1 0.2
14/01:30pm 27.9 24.6 11.5 36 9.9 ESE 20 35 11 19 1014.0 1008.2 0.2
14/01:00pm 27.6 23.7 9.4 32 10.6 ESE 20 35 11 19 1014.4 1008.5 0.2
14/12:30pm 27.3 23.6 9.6 33 10.3 ESE 19 30 10 16 1014.7 1008.9 0.2
14/12:00pm 26.8 23.6 10.1 35 9.8 ESE 17 28 9 15 1015.0 1009.2 0.2
14/11:30am 26.5 22.7 8.9 33 10.1 ESE 19 26 10 14 1015.5 1009.7 0.2
14/11:00am 25.5 20.9 8.1 33 9.8 SSE 22 30 12 16 1015.7 1009.9 0.2
14/10:30am 25.2 21.8 9.1 36 9.2 SE 17 24 9 13 1015.8 1010.0 0.0
14/10:00am 24.2 20.7 7.4 34 9.3 SE 15 26 8 14 1015.9 1010.1 0.0
14/09:30am 22.4 21.0 9.6 44 7.3 SE 7 13 4 7 1015.9 1010.1 0.0
14/09:00am 19.8 19.9 10.2 54 5.4 CALM 0 7 0 4 1015.9 1010.1 0.2
14/08:30am 17.1 16.7 13.0 77 2.4 ENE 7 9 4 5 1015.6 1009.8 0.2
14/08:00am 14.3 14.3 14.1 99 0.1 NE 7 9 4 5 1015.4 1009.6 0.2
14/07:32am 12.8 12.3 12.8 100 0.0 ENE 7 9 4 5 1015.1 1009.3 0.2
14/07:30am 12.3 11.7 12.3 100 0.0 ENE 7 7 4 4 1015.1 1009.3 0.2
14/07:13am 11.1 10.3 11.1 100 0.0 ENE 6 9 3 5 1015.0 1009.2 0.2
14/07:00am 10.9 11.2 10.9 100 0.0 CALM 0 0 0 0 1015.0 1009.2 0.2
14/06:30am 11.5 12.0 11.5 100 0.0 CALM 0 0 0 0 1014.8 1009.0 0.2
14/06:00am 11.1 11.1 11.1 100 0.0 SSE 2 6 1 3 1014.5 1008.7 0.2
14/05:35am 10.6 10.8 10.6 100 0.0 CALM 0 7 0 4 1014.4 1008.5 0.2
14/05:34am 10.7 10.9 10.7 100 0.0 CALM 0 0 0 0 1014.4 1008.5 0.2
14/05:30am 11.1 11.5 11.1 100 0.0 CALM 0 0 0 0 1014.4 1008.5 0.2
14/05:00am 11.2 10.4 11.2 100 0.0 E 6 7 3 4 1014.3 1008.4 0.2
14/04:30am 11.8 11.0 11.8 100 0.0 E 7 9 4 5 1014.3 1008.4 0.2
14/04:00am 11.7 11.1 11.7 100 0.0 SSE 6 7 3 4 1014.3 1008.4 0.2
14/03:43am 11.7 10.5 11.7 100 0.0 E 9 11 5 6 1014.4 1008.5 0.2
14/03:30am 11.8 11.6 11.8 100 0.0 SSW 4 7 2 4 1014.4 1008.5 0.2
14/03:29am 11.8 11.6 11.8 100 0.0 S 4 7 2 4 1014.4 1008.5 0.2
14/03:00am 12.9 11.3 12.9 100 0.0 ESE 13 15 7 8 1014.5 1008.7 0.2
14/02:31am 13.0 11.1 13.0 100 0.0 E 15 17 8 9 1014.8 1009.0 0.2
14/02:30am 13.0 11.1 13.0 100 0.0 E 15 17 8 9 1014.8 1009.0 0.2
14/02:25am 13.0 11.1 13.0 100 0.0 E 15 19 8 10 1014.9 1009.1 0.2
14/02:00am 13.3 11.1 13.3 100 0.0 E 17 20 9 11 1015.1 1009.3 0.2
14/01:30am 13.5 11.3 13.3 99 0.1 E 17 17 9 9 1015.6 1009.8 0.2
14/01:00am 12.7 10.6 12.5 99 0.1 ENE 15 17 8 9 1015.7 1009.9 0.2
14/12:30am 13.1 11.5 12.9 99 0.1 E 13 15 7 8 1015.9 1010.1 0.2
14/12:00am 13.0 11.0 12.8 99 0.1 ENE 15 17 8 9 1016.0 1010.2 0.2
 
Date/Time
EDT
Temp
°C
App
Temp
°C
Dew
Point
Rel
Hum
%
Delta-T
°C
Wind Press
QNH
hPa
Press
MSL
hPa
Rain
since 9 am
mm
Dir
 
Spd
km/h
Gust
km/h
Spd
kts
Gust
kts
13/11:30pm 13.5 13.2 13.2 98 0.2 E 7 9 4 5 1016.4 1010.6 0.2
13/11:00pm 14.1 13.6 13.8 98 0.2 E 9 11 5 6 1016.6 1010.8 0.2
13/10:30pm 14.9 14.1 14.1 95 0.5 E 11 13 6 7 1016.9 1011.1 0.2
13/10:00pm 15.3 13.6 13.5 89 1.1 ENE 15 15 8 8 1017.0 1011.3 0.2
13/09:30pm 16.7 14.9 13.4 81 2.0 E 15 20 8 11 1016.9 1011.1 0.2
13/09:00pm 17.2 15.6 12.7 75 2.6 E 13 17 7 9 1016.7 1010.9 0.2
13/08:30pm 18.2 16.6 12.9 71 3.1 E 13 17 7 9 1016.5 1010.7 0.2
13/08:00pm 19.1 16.7 12.6 66 3.8 E 17 20 9 11 1016.1 1010.4 0.2
13/07:30pm 20.3 17.4 12.3 60 4.7 E 19 24 10 13 1016.0 1010.2 0.2
13/07:00pm 21.6 18.6 12.5 56 5.4 ENE 20 26 11 14 1015.7 1009.9 0.2
13/06:30pm 22.5 19.5 12.4 52 6.0 ENE 20 30 11 16 1015.5 1009.7 0.2
13/06:00pm 23.0 19.1 12.0 50 6.5 ENE 24 32 13 17 1015.4 1009.6 0.2
13/05:30pm 23.6 20.0 12.0 48 6.9 ENE 22 30 12 16 1015.3 1009.5 0.2
13/05:00pm 24.1 20.6 12.1 47 7.2 ENE 22 30 12 16 1015.4 1009.6 0.2
13/04:30pm 24.4 21.1 11.0 43 7.9 E 19 28 10 15 1015.6 1009.8 0.2
13/04:00pm 25.2 22.1 12.1 44 7.9 E 20 30 11 16 1015.8 1010.0 0.2
13/03:30pm 24.2 20.8 9.0 38 8.6 ESE 17 28 9 15 1015.9 1010.1 0.2
13/03:00pm 24.1 20.8 9.7 40 8.3 ESE 17 26 9 14 1016.1 1010.4 0.2
13/02:30pm 23.9 20.0 9.5 40 8.2 SE 20 28 11 15 1016.5 1010.7 0.2
13/02:00pm 23.6 20.2 11.3 46 7.2 ESE 20 32 11 17 1016.8 1011.0 0.2
13/01:30pm 22.9 19.1 9.7 43 7.5 SE 20 28 11 15 1017.3 1011.5 0.2
13/01:00pm 22.4 18.4 8.1 40 7.9 ESE 19 28 10 15 1017.4 1011.6 0.2
13/12:30pm 22.2 18.9 11.0 49 6.5 E 19 28 10 15 1017.6 1011.8 0.2
13/12:00pm 21.3 17.8 10.8 51 6.1 ESE 20 28 11 15 1018.0 1012.3 0.2
13/11:30am 21.0 17.4 10.5 51 6.0 ESE 20 30 11 16 1018.3 1012.5 0.0
13/11:00am 19.8 16.7 12.1 61 4.5 E 20 26 11 14 1018.4 1012.6 0.0
13/10:30am 18.9 16.0 12.2 65 3.9 E 19 26 10 14 1018.5 1012.7 0.0
13/10:00am 17.6 14.6 12.5 72 3.0 E 20 28 11 15 1018.5 1012.7 0.0
13/09:30am 16.7 14.0 13.6 82 1.8 E 20 28 11 15 1018.5 1012.7 0.0
13/09:00am 14.4 11.5 14.1 98 0.2 E 22 28 12 15 1018.4 1012.6 -
13/08:55am 14.5 11.7 14.3 99 0.1 E 22 28 12 15 1018.3 1012.5 -
13/08:30am 13.5 10.8 13.5 100 0.0 E 20 26 11 14 1018.3 1012.5 -
13/08:19am 13.0 10.1 13.0 100 0.0 E 20 26 11 14 1018.3 1012.5 -
13/08:00am 12.6 9.6 12.6 100 0.0 E 20 28 11 15 1018.0 1012.3 -
13/07:30am 12.3 9.2 12.3 100 0.0 E 20 26 11 14 1017.8 1012.1 -
13/07:00am 12.1 9.1 12.1 100 0.0 E 19 22 10 12 1017.6 1011.8 -
13/06:30am 12.2 9.7 12.2 100 0.0 E 17 20 9 11 1017.6 1011.8 -
13/06:00am 12.2 9.7 12.2 100 0.0 E 17 20 9 11 1017.3 1011.5 -
13/05:30am 12.3 9.8 12.3 100 0.0 E 17 22 9 12 1017.3 1011.5 -
13/05:00am 12.5 10.1 12.5 100 0.0 E 17 20 9 11 1017.3 1011.5 -
13/04:30am 12.7 11.1 12.7 100 0.0 ESE 13 17 7 9 1017.1 1011.4 -
13/04:26am 12.7 10.7 12.7 100 0.0 E 15 17 8 9 1017.3 1011.5 -
13/04:00am 12.8 10.4 12.8 100 0.0 ESE 17 20 9 11 1017.1 1011.4 -
13/03:44am 12.7 10.7 12.7 100 0.0 ESE 15 20 8 11 1017.3 1011.5 -
13/03:30am 12.9 11.0 12.9 100 0.0 E 15 19 8 10 1017.3 1011.5 -
13/03:00am 12.8 10.8 12.6 99 0.1 E 15 17 8 9 1017.5 1011.7 0.0
13/02:30am 13.2 11.3 13.0 99 0.1 ESE 15 19 8 10 1017.7 1011.9 -
13/02:00am 13.6 11.4 13.4 99 0.1 E 17 22 9 12 1017.8 1012.1 -
13/01:30am 13.9 11.3 13.7 99 0.1 E 20 26 11 14 1018.1 1012.4 -
13/01:00am 14.0 11.6 13.8 99 0.1 E 19 22 10 12 1018.6 1012.8 -
13/12:30am 14.3 12.3 14.0 98 0.2 E 17 22 9 12 1018.8 1013.1 -
13/12:00am 14.5 12.6 14.2 98 0.2 E 17 20 9 11 1018.8 1013.1 -
 
Date/Time
EDT
Temp
°C
App
Temp
°C
Dew
Point
Rel
Hum
%
Delta-T
°C
Wind Press
QNH
hPa
Press
MSL
hPa
Rain
since 9 am
mm
Dir
 
Spd
km/h
Gust
km/h
Spd
kts
Gust
kts
12/11:30pm 14.8 13.0 14.5 98 0.2 E 17 20 9 11 1019.0 1013.3 -
12/11:00pm 15.1 13.2 14.1 94 0.6 E 17 22 9 12 1019.1 1013.4 -
12/10:30pm 15.6 13.3 14.1 91 0.9 E 19 26 10 14 1019.1 1013.4 -
12/10:00pm 15.8 13.8 14.0 89 1.1 E 17 20 9 11 1019.4 1013.6 -
12/09:30pm 16.5 14.1 13.8 84 1.6 E 19 24 10 13 1019.3 1013.5 -
12/09:00pm 17.0 14.4 13.3 79 2.2 E 19 24 10 13 1018.9 1013.2 0.0
12/08:30pm 17.6 15.6 12.7 73 2.9 E 15 20 8 11 1018.9 1013.2 -
12/08:00pm 18.4 16.2 12.2 67 3.6 E 15 20 8 11 1018.6 1012.8 -
12/07:30pm 19.6 16.3 10.9 57 5.0 E 19 24 10 13 1018.5 1012.7 -
12/07:00pm 20.9 17.6 11.0 53 5.7 E 19 24 10 13 1018.3 1012.5 -
12/06:30pm 21.5 17.8 10.0 48 6.6 ENE 20 28 11 15 1018.0 1012.3 -
12/06:00pm 22.1 17.9 9.6 45 7.1 ESE 22 30 12 16 1017.9 1012.2 -
12/05:30pm 22.5 19.1 9.3 43 7.5 E 17 28 9 15 1017.8 1012.1 -
12/05:00pm 22.6 19.9 10.4 46 7.0 ESE 15 26 8 14 1017.8 1012.1 -
12/04:30pm 22.6 19.0 10.4 46 7.0 ESE 20 32 11 17 1017.8 1012.1 -
12/04:00pm 22.5 19.6 10.9 48 6.7 ESE 17 28 9 15 1017.9 1012.2 -
12/03:30pm 22.6 19.2 10.7 47 6.9 SE 19 26 10 14 1018.1 1012.4 -
12/03:00pm 22.1 18.7 11.2 50 6.4 E 20 32 11 17 1018.5 1012.7 0.4
12/02:30pm 22.2 19.2 11.9 52 6.1 E 19 30 10 16 1018.6 1012.8 -
12/02:00pm 21.9 18.8 11.6 52 6.0 SE 19 28 10 15 1018.8 1013.1 -
12/01:30pm 22.1 19.5 13.2 57 5.4 E 19 30 10 16 1019.0 1013.3 -
12/01:00pm 21.5 18.6 12.4 56 5.4 ESE 19 26 10 14 1019.0 1013.3 -
12/12:30pm 20.7 16.9 11.3 55 5.5 E 22 33 12 18 1019.3 1013.5 -
12/12:00pm 20.2 16.0 11.1 56 5.2 E 24 32 13 17 1019.5 1013.8 0.0
12/11:30am 19.6 15.5 11.4 59 4.7 ESE 24 32 13 17 1019.6 1013.9 0.0
12/11:00am 19.3 16.0 12.8 66 3.8 E 22 30 12 16 1019.8 1014.1 0.0
12/10:30am 18.8 15.2 13.2 70 3.3 E 24 32 13 17 1019.8 1014.1 0.0
12/10:00am 18.8 16.1 14.7 77 2.5 E 22 32 12 17 1019.9 1014.2 0.0
12/09:30am 17.6 13.6 13.1 75 2.7 E 26 33 14 18 1019.6 1013.9 0.0
12/09:00am 16.6 13.2 13.7 83 1.7 E 24 32 13 17 1019.5 1013.8 0.2
12/08:30am 15.3 11.9 12.6 84 1.6 E 22 28 12 15 1019.4 1013.6 0.2
12/08:00am 15.0 12.3 13.0 88 1.2 ENE 19 22 10 12 1018.9 1013.2 0.2
12/07:30am 13.6 11.4 13.3 98 0.2 E 17 20 9 11 1018.7 1013.0 0.2
12/07:00am 12.1 8.9 11.9 99 0.1 ENE 20 24 11 13 1018.1 1012.4 0.2
12/06:30am 11.9 8.8 11.7 99 0.1 ENE 19 22 10 12 1017.9 1012.2 0.2

Other Formats:

Comma delimited format used in spreadsheet applications
http://www.bom.gov.au/fwo/IDN60801/IDN60801.95773.axf

JavaScript Object Notation format (JSON) in row-major order
http://www.bom.gov.au/fwo/IDN60801/IDN60801.95773.json